Time;durP1;ratioP1;P1;durP2;ratioP2;P2;SDS_P1;SDS_P2;PMS_P1;PMS_P2;Temp;Humidity;BMP_temperature;BMP_pressure;BME280_temperature;BME280_humidity;BME280_pressure;Samples;Min_cycle;Max_cycle;Signal;HPM_P1;HPM_P2
2023/10/01 00:00:06;;;;;;;12.13;6.77;;;;;;;18.35;61.27;95219.63;5073732;28;20448;-85
2023/10/01 00:02:33;;;;;;;10.30;6.47;;;;;;;18.28;61.90;95216.81;5038685;28;20447;-84
2023/10/01 00:05:00;;;;;;;7.50;6.13;;;;;;;18.28;61.38;95219.47;5074157;28;20451;-85
2023/10/01 00:07:28;;;;;;;8.43;6.90;;;;;;;18.22;61.93;95215.66;5073624;28;20838;-83
2023/10/01 00:09:55;;;;;;;8.03;6.30;;;;;;;18.24;62.93;95210.19;5073620;28;20442;-84
2023/10/01 00:12:23;;;;;;;8.50;6.37;;;;;;;18.21;62.73;95203.38;5072984;28;20444;-83
2023/10/01 00:14:52;;;;;;;7.30;6.60;;;;;;;18.20;62.70;95203.53;5073021;28;20492;-85
2023/10/01 00:17:21;;;;;;;13.10;6.50;;;;;;;18.15;61.80;95206.69;5074220;28;20451;-84
2023/10/01 00:19:47;;;;;;;9.53;7.10;;;;;;;18.15;62.47;95212.00;5077332;28;20540;-85
2023/10/01 00:22:17;;;;;;;12.43;6.60;;;;;;;18.22;63.43;95207.72;5077014;28;20447;-84
2023/10/01 00:24:44;;;;;;;8.40;6.13;;;;;;;18.27;63.46;95199.22;5076988;28;20486;-85
2023/10/01 00:27:12;;;;;;;9.07;6.40;;;;;;;18.37;62.95;95197.19;5076849;28;20442;-84
2023/10/01 00:29:39;;;;;;;10.17;6.63;;;;;;;18.35;62.10;95201.84;5058506;28;20482;-83
2023/10/01 00:32:07;;;;;;;8.77;7.10;;;;;;;18.29;62.35;95201.72;5076539;28;20441;-85
2023/10/01 00:34:35;;;;;;;9.47;7.00;;;;;;;18.23;62.27;95190.75;5076821;28;20448;-85
2023/10/01 00:37:02;;;;;;;10.67;6.40;;;;;;;18.18;61.08;95195.72;5057997;28;20446;-83
2023/10/01 00:39:29;;;;;;;6.30;5.70;;;;;;;18.11;61.09;95192.09;5041197;28;20484;-83
2023/10/01 00:41:56;;;;;;;8.30;6.43;;;;;;;18.01;61.68;95191.47;5057684;28;20441;-84
2023/10/01 00:44:24;;;;;;;7.30;5.63;;;;;;;18.03;61.40;95185.97;5076124;28;20786;-82
2023/10/01 00:46:50;;;;;;;9.57;7.00;;;;;;;17.97;62.08;95191.97;5040928;28;20496;-84
2023/10/01 00:49:21;;;;;;;11.43;6.20;;;;;;;17.99;63.87;95187.31;5076421;28;20452;-85
2023/10/01 00:51:48;;;;;;;7.70;6.17;;;;;;;17.95;63.08;95185.00;5041742;28;20536;-83
2023/10/01 00:54:15;;;;;;;8.20;6.37;;;;;;;17.96;62.19;95185.84;5076263;28;20436;-84
2023/10/01 00:56:43;;;;;;;10.17;6.50;;;;;;;17.83;61.74;95188.97;5076125;28;20481;-82
2023/10/01 00:59:11;;;;;;;10.20;6.33;;;;;;;17.77;64.13;95187.00;5076351;28;20490;-84
2023/10/01 01:01:39;;;;;;;12.00;6.80;;;;;;;17.76;62.36;95188.00;5075955;28;20926;-84
2023/10/01 01:04:10;;;;;;;6.83;6.13;;;;;;;17.63;63.48;95184.97;5076158;28;20479;-83
2023/10/01 01:06:39;;;;;;;8.77;6.07;;;;;;;17.60;64.35;95185.28;5076117;28;20441;-84
2023/10/01 01:09:10;;;;;;;10.73;7.07;;;;;;;17.57;63.02;95183.81;5076482;28;20446;-84
2023/10/01 01:11:38;;;;;;;9.00;6.23;;;;;;;17.50;64.73;95189.94;5075969;28;20533;-85
2023/10/01 01:14:07;;;;;;;7.73;5.60;;;;;;;17.54;63.91;95188.63;5076183;28;20771;-83
2023/10/01 01:16:34;;;;;;;14.33;6.47;;;;;;;17.34;64.67;95186.28;5075821;28;20495;-83
2023/10/01 01:19:03;;;;;;;7.23;6.13;;;;;;;17.42;64.62;95187.28;5075482;28;20498;-84
2023/10/01 01:21:30;;;;;;;9.90;7.20;;;;;;;17.48;65.40;95184.81;5040918;28;20443;-83
2023/10/01 01:23:59;;;;;;;13.73;6.43;;;;;;;17.56;64.37;95191.94;5075847;28;20446;-85
2023/10/01 01:26:27;;;;;;;7.67;6.80;;;;;;;17.61;63.74;95181.66;5075924;28;20943;-84
2023/10/01 01:28:53;;;;;;;12.30;6.23;;;;;;;17.60;65.26;95187.94;5075453;28;20466;-84
2023/10/01 01:31:26;;;;;;;9.97;6.97;;;;;;;17.70;64.14;95196.63;5075520;28;20495;-84
2023/10/01 01:33:55;;;;;;;9.20;6.60;;;;;;;17.78;62.68;95195.78;5075876;28;20440;-83
2023/10/01 01:36:22;;;;;;;12.83;6.37;;;;;;;17.69;62.74;95194.97;5075145;28;20782;-84
2023/10/01 01:39:12;;;;;;;8.20;6.80;;;;;;;17.56;63.09;95189.28;5075573;28;20979;-83
2023/10/01 01:41:42;;;;;;;12.60;6.67;;;;;;;17.32;64.68;95195.38;5075124;28;20451;-83
2023/10/01 01:44:13;;;;;;;8.73;7.40;;;;;;;17.22;65.00;95198.19;5075090;28;20479;-83
2023/10/01 01:46:47;;;;;;;10.93;6.30;;;;;;;17.19;66.45;95192.41;5075433;28;20453;-84
2023/10/01 01:49:17;;;;;;;11.33;6.87;;;;;;;17.24;67.55;95196.22;5074975;28;20963;-83
2023/10/01 01:51:56;;;;;;;9.90;8.13;;;;;;;16.97;66.88;95205.25;5075274;28;20451;-84
2023/10/01 01:54:27;;;;;;;15.73;9.77;;;;;;;16.89;66.90;95199.13;5074996;28;20508;-83
2023/10/01 01:56:55;;;;;;;15.30;9.80;;;;;;;16.75;67.18;95197.91;5074652;28;20477;-84
2023/10/01 01:59:24;;;;;;;14.87;10.20;;;;;;;16.78;67.10;95202.91;5075237;28;20487;-84
2023/10/01 02:01:52;;;;;;;15.83;10.80;;;;;;;16.64;66.58;95204.28;5074589;28;21031;-84
2023/10/01 02:04:20;;;;;;;14.33;9.00;;;;;;;16.56;66.54;95200.78;5075092;28;20453;-84
2023/10/01 02:06:47;;;;;;;18.67;9.33;;;;;;;16.63;67.68;95192.03;5075321;28;20788;-84
2023/10/01 02:09:19;;;;;;;15.27;9.40;;;;;;;16.71;67.31;95193.91;5074597;28;20437;-84
2023/10/01 02:11:48;;;;;;;10.87;8.93;;;;;;;16.80;67.09;95194.78;5074899;28;20449;-84
2023/10/01 02:14:30;;;;;;;13.53;9.63;;;;;;;16.84;68.40;95188.16;5055698;28;20446;-84
2023/10/01 02:17:03;;;;;;;10.03;7.63;;;;;;;16.83;66.63;95199.78;5074349;28;20997;-84
2023/10/01 02:19:30;;;;;;;13.37;8.03;;;;;;;16.81;67.01;95188.50;5074367;28;20486;-84
2023/10/01 02:22:03;;;;;;;13.40;7.90;;;;;;;16.80;67.74;95192.97;5074396;28;20445;-84
2023/10/01 02:27:13;;;;;;;7.20;6.50;;;;;;;16.98;67.92;95188.38;5074286;28;20432;-83
2023/10/01 02:30:14;;;;;;;13.13;7.40;;;;;;;17.09;67.64;95175.81;5074138;28;20446;-84
2023/10/01 02:32:34;;;;;;;10.33;7.03;;;;;;;17.11;66.92;95185.25;5074462;28;20445;-83
2023/10/01 02:35:33;;;;;;;6.47;5.87;;;;;;;17.17;66.31;95189.09;5074317;28;20450;-83
2023/10/01 02:37:49;;;;;;;7.17;6.47;;;;;;;17.18;64.89;95186.25;5074251;28;20965;-83
2023/10/01 02:40:18;;;;;;;9.43;6.70;;;;;;;17.09;66.46;95183.78;5073551;28;20478;-84
2023/10/01 02:42:49;;;;;;;8.87;7.97;;;;;;;17.14;66.83;95178.81;5071988;28;20437;-84
2023/10/01 02:48:16;;;;;;;8.70;7.80;;;;;;;17.02;65.47;95180.91;5090571;27;21041;-85
2023/10/01 02:50:45;;;;;;;7.77;7.07;;;;;;;16.94;66.55;95186.22;5090347;28;20505;-82
2023/10/01 02:53:13;;;;;;;6.73;6.00;;;;;;;16.99;67.98;95176.78;5090470;28;20453;-84
2023/10/01 02:55:44;;;;;;;9.03;6.73;;;;;;;16.89;66.51;95188.50;5090829;28;20522;-85
2023/10/01 02:58:19;;;;;;;14.80;7.13;;;;;;;16.91;66.24;95186.53;5090367;28;20910;-82
2023/10/01 03:00:46;;;;;;;8.90;7.33;;;;;;;16.81;65.83;95188.50;5090490;28;20443;-82
2023/10/01 03:03:17;;;;;;;9.33;7.37;;;;;;;16.78;67.02;95186.16;5090320;28;20853;-82
2023/10/01 03:05:46;;;;;;;6.97;6.37;;;;;;;16.67;66.75;95180.16;5071984;28;20450;-82
2023/10/01 03:08:41;;;;;;;11.50;7.23;;;;;;;16.55;66.70;95189.38;5089166;28;20446;-80
2023/10/01 03:11:11;;;;;;;7.83;6.90;;;;;;;16.39;68.17;95184.81;5086769;28;20525;-82
2023/10/01 03:13:38;;;;;;;17.33;6.50;;;;;;;16.45;68.48;95191.28;5090038;28;20446;-82
2023/10/01 03:18:54;;;;;;;7.93;7.13;;;;;;;16.63;68.06;95186.75;5090104;28;20920;-82
2023/10/01 03:22:08;;;;;;;10.43;6.60;;;;;;;16.59;67.71;95190.69;5090016;28;20900;-81
2023/10/01 03:24:10;;;;;;;11.87;8.03;;;;;;;16.60;68.60;95184.41;5089826;28;20444;-85
2023/10/01 03:26:43;;;;;;;8.37;7.50;;;;;;;16.61;67.12;95187.88;5090378;28;20488;-82
2023/10/01 03:29:17;;;;;;;8.50;7.00;;;;;;;16.58;67.71;95183.75;5089488;28;20528;-81
2023/10/01 03:31:46;;;;;;;7.97;7.17;;;;;;;16.62;69.04;95181.59;5089844;28;20452;-82
2023/10/01 03:34:28;;;;;;;9.53;6.27;;;;;;;16.71;68.09;95184.13;5089842;28;20451;-81
2023/10/01 03:36:58;;;;;;;9.83;6.83;;;;;;;16.78;67.56;95187.00;5090011;28;20440;-82
2023/10/01 03:39:26;;;;;;;7.53;5.80;;;;;;;16.89;67.86;95183.22;5089837;28;20447;-82
2023/10/01 03:42:10;;;;;;;7.13;6.43;;;;;;;16.96;67.38;95184.22;5089824;28;20452;-81
2023/10/01 03:44:59;;;;;;;13.27;7.57;;;;;;;16.97;66.19;95184.06;5089616;28;20535;-82
2023/10/01 03:47:27;;;;;;;10.70;7.30;;;;;;;17.00;66.10;95193.50;5089633;28;20481;-81
2023/10/01 03:49:55;;;;;;;7.37;6.53;;;;;;;17.01;66.64;95185.38;5089963;28;20449;-83
2023/10/01 03:52:22;;;;;;;12.97;6.30;;;;;;;17.07;67.21;95188.41;5089428;28;20454;-82
2023/10/01 03:55:00;;;;;;;7.60;5.90;;;;;;;17.14;66.04;95189.41;5089515;28;20441;-83
2023/10/01 03:57:29;;;;;;;9.50;6.57;;;;;;;17.14;65.96;95190.25;5088050;28;20858;-82
2023/10/01 03:59:57;;;;;;;7.63;6.73;;;;;;;17.14;66.43;95187.59;5075854;28;20447;-82
2023/10/01 04:02:28;;;;;;;7.67;6.87;;;;;;;17.06;66.91;95187.56;5076195;28;20481;-83
2023/10/01 04:05:02;;;;;;;15.27;7.97;;;;;;;17.09;65.66;95189.91;5076169;28;20437;-81
2023/10/01 04:07:40;;;;;;;9.17;7.20;;;;;;;17.10;65.67;95198.69;5075441;28;20520;-82
2023/10/01 04:10:13;;;;;;;9.50;7.30;;;;;;;17.07;65.45;95194.53;5075807;28;20795;-82
2023/10/01 04:12:44;;;;;;;8.00;6.53;;;;;;;17.07;65.71;95194.53;5042257;28;20523;-83
2023/10/01 04:15:27;;;;;;;6.53;5.93;;;;;;;17.05;67.21;95199.16;5076239;28;20447;-82
2023/10/01 04:20:36;;;;;;;8.47;6.67;;;;;;;17.06;66.43;95203.50;5074963;28;20451;-82
2023/10/01 04:23:04;;;;;;;11.83;6.93;;;;;;;17.07;66.66;95199.84;5075904;28;20454;-81
2023/10/01 04:25:38;;;;;;;8.13;7.00;;;;;;;17.07;65.13;95202.50;5075371;28;20948;-82
2023/10/01 04:28:07;;;;;;;9.23;6.90;;;;;;;17.04;66.35;95194.84;5075316;28;20873;-82
2023/10/01 04:30:35;;;;;;;8.23;6.00;;;;;;;17.00;66.38;95202.28;5040529;28;20438;-82
2023/10/01 04:33:16;;;;;;;10.23;7.10;;;;;;;17.01;66.06;95205.78;5075465;28;20444;-78
2023/10/01 04:35:51;;;;;;;13.03;7.10;;;;;;;17.09;67.76;95204.97;5075064;28;20766;-81
2023/10/01 04:38:20;;;;;;;7.03;6.33;;;;;;;17.19;67.31;95214.44;5074825;28;20603;-81
2023/10/01 04:40:48;;;;;;;11.90;6.87;;;;;;;17.35;68.75;95218.97;5074933;28;20501;-81
2023/10/01 04:43:19;;;;;;;6.87;6.20;;;;;;;17.61;67.98;95222.28;5074891;28;20774;-81
2023/10/01 04:45:46;;;;;;;12.73;6.83;;;;;;;17.93;67.49;95221.53;5074623;28;20495;-81
2023/10/01 04:48:17;;;;;;;9.60;7.10;;;;;;;18.17;66.48;95222.47;5074494;28;20486;-81
2023/10/01 04:50:46;;;;;;;7.80;7.00;;;;;;;18.38;62.97;95228.06;5039076;28;20520;-81
2023/10/01 04:53:14;;;;;;;10.17;6.20;;;;;;;18.57;63.29;95230.38;5074736;28;20467;-82
2023/10/01 04:55:44;;;;;;;7.10;6.37;;;;;;;18.58;62.59;95231.19;5074604;28;20482;-82
2023/10/01 04:58:12;;;;;;;8.43;6.43;;;;;;;18.48;59.66;95228.72;5074357;28;20449;-82
2023/10/01 05:00:41;;;;;;;7.63;6.73;;;;;;;18.18;59.90;95242.72;5074883;28;20993;-81
2023/10/01 05:03:10;;;;;;;12.87;5.93;;;;;;;18.00;63.61;95250.88;5074336;28;20488;-78
2023/10/01 05:05:37;;;;;;;10.70;6.50;;;;;;;18.14;69.31;95242.22;5074449;28;20477;-77
2023/10/01 05:08:07;;;;;;;8.87;7.97;;;;;;;18.35;65.19;95235.56;5039652;28;20511;-79
2023/10/01 05:10:50;;;;;;;7.20;6.60;;;;;;;18.36;61.39;95248.69;5073551;28;20457;-79
2023/10/01 05:13:20;;;;;;;8.57;7.67;;;;;;;18.25;61.28;95252.53;5074151;28;20507;-78
2023/10/01 05:15:49;;;;;;;8.10;6.83;;;;;;;17.99;61.31;95257.19;5073936;28;20857;-78
2023/10/01 05:18:17;;;;;;;10.47;7.70;;;;;;;17.58;66.71;95262.44;5072935;28;20441;-81
2023/10/01 05:20:45;;;;;;;7.90;6.63;;;;;;;18.24;64.78;95255.34;5073515;28;20454;-78
2023/10/01 05:23:13;;;;;;;11.90;7.47;;;;;;;18.77;61.62;95264.53;5073287;28;20478;-79
2023/10/01 05:25:45;;;;;;;7.80;6.80;;;;;;;19.17;59.93;95261.75;5073381;28;20437;-78
2023/10/01 05:28:23;;;;;;;9.90;6.87;;;;;;;19.60;60.06;95261.34;5073590;28;20604;-77
2023/10/01 05:30:57;;;;;;;6.40;5.80;;;;;;;19.96;57.33;95258.97;5073443;28;20498;-77
2023/10/01 05:33:25;;;;;;;125.43;91.97;;;;;;;20.56;59.30;95261.63;5073463;28;20528;-78
2023/10/01 05:35:57;;;;;;;60.23;38.37;;;;;;;21.23;57.75;95260.69;5073336;28;20482;-76
2023/10/01 05:38:27;;;;;;;23.07;15.07;;;;;;;21.96;58.36;95252.47;5073544;28;20450;-78
2023/10/01 05:40:56;;;;;;;13.70;10.37;;;;;;;22.60;54.31;95259.63;5074159;28;20446;-88
2023/10/01 05:43:27;;;;;;;13.80;8.23;;;;;;;23.17;54.73;95264.72;5074124;28;20529;-78
2023/10/01 05:46:01;;;;;;;13.73;6.80;;;;;;;23.35;49.94;95258.81;5072260;28;20489;-77
2023/10/01 05:48:29;;;;;;;8.73;7.10;;;;;;;23.57;50.31;95264.09;5073375;28;20491;-78
2023/10/01 05:50:58;;;;;;;7.73;6.67;;;;;;;23.58;47.27;95257.72;5073871;28;20455;-80
2023/10/01 05:53:27;;;;;;;11.13;6.83;;;;;;;23.52;53.59;95263.84;5055624;28;20827;-79
2023/10/01 05:55:54;;;;;;;8.67;7.77;;;;;;;23.09;47.29;95264.06;5061883;28;20868;-80
2023/10/01 05:58:22;;;;;;;7.20;6.10;;;;;;;22.60;50.97;95264.16;5061554;28;20447;-78
2023/10/01 06:00:57;;;;;;;11.50;6.97;;;;;;;22.55;51.37;95262.88;5071642;28;20442;-80
2023/10/01 06:03:25;;;;;;;8.83;7.43;;;;;;;22.82;52.70;95263.91;5072864;28;20436;-78
2023/10/01 06:05:57;;;;;;;12.57;7.20;;;;;;;23.22;53.36;95250.75;5072555;28;20450;-78
2023/10/01 06:08:25;;;;;;;7.73;6.70;;;;;;;23.74;51.37;95252.00;5072495;28;20489;-78
2023/10/01 06:11:06;;;;;;;10.67;6.70;;;;;;;24.32;51.06;95252.31;5072958;28;20447;-79
2023/10/01 06:13:35;;;;;;;10.30;7.20;;;;;;;24.58;47.59;95260.38;5072386;28;20858;-74
2023/10/01 06:16:11;;;;;;;12.40;7.17;;;;;;;24.82;46.47;95256.19;5072759;28;20796;-78
2023/10/01 06:18:42;;;;;;;10.33;7.73;;;;;;;24.67;46.86;95258.28;5072513;28;20578;-78
2023/10/01 06:21:10;;;;;;;7.37;6.67;;;;;;;24.61;43.58;95259.94;5071618;28;20448;-77
2023/10/01 06:23:49;;;;;;;8.90;7.50;;;;;;;24.23;44.74;95264.22;5062244;28;20446;-77
2023/10/01 06:26:19;;;;;;;8.70;7.90;;;;;;;23.92;45.89;95262.13;5057677;28;20468;-78
2023/10/01 06:28:46;;;;;;;9.40;8.00;;;;;;;23.60;46.11;95256.47;5064571;28;20479;-77
2023/10/01 06:31:16;;;;;;;9.40;8.23;;;;;;;23.53;46.97;95262.81;5072235;28;20811;-78
2023/10/01 06:33:44;;;;;;;12.77;9.00;;;;;;;23.49;48.40;95265.06;5072492;28;20481;-79
2023/10/01 06:36:19;;;;;;;16.00;9.60;;;;;;;22.99;49.52;95269.78;5052677;28;20861;-77
2023/10/01 06:38:47;;;;;;;14.73;8.90;;;;;;;22.80;50.36;95268.59;5067187;28;20770;-76
2023/10/01 06:41:16;;;;;;;10.77;9.00;;;;;;;22.88;49.72;95272.19;5072702;28;20496;-77
2023/10/01 06:43:48;;;;;;;10.73;7.80;;;;;;;22.77;49.28;95270.84;5070099;28;20446;-77
2023/10/01 06:46:19;;;;;;;15.80;9.10;;;;;;;22.73;49.58;95274.94;5053325;28;20874;-77
2023/10/01 06:48:49;;;;;;;10.30;8.30;;;;;;;22.78;52.53;95281.34;5053018;28;20486;-76
2023/10/01 06:51:19;;;;;;;11.60;8.47;;;;;;;22.64;50.47;95286.81;5057884;28;20448;-77
2023/10/01 06:53:47;;;;;;;14.23;8.73;;;;;;;22.76;50.41;95275.34;5066538;28;20975;-77
2023/10/01 06:56:17;;;;;;;11.73;8.67;;;;;;;22.54;51.83;95271.06;5072116;28;20436;-77
2023/10/01 06:59:12;;;;;;;9.30;8.40;;;;;;;22.83;50.56;95270.91;5072324;28;20462;-77
2023/10/01 07:01:42;;;;;;;11.90;9.13;;;;;;;23.10;53.01;95273.72;5072453;28;21015;-77
2023/10/01 07:04:11;;;;;;;13.53;8.93;;;;;;;23.27;52.47;95282.28;5072395;28;20457;-77
2023/10/01 07:06:39;;;;;;;14.03;8.37;;;;;;;23.30;50.95;95271.16;5071660;28;20439;-77
2023/10/01 07:09:23;;;;;;;11.43;9.50;;;;;;;23.09;52.63;95269.41;5071990;28;20484;-77
2023/10/01 07:11:50;;;;;;;13.40;9.60;;;;;;;23.21;51.25;95277.72;5036349;28;20517;-77
2023/10/01 07:14:30;;;;;;;16.30;9.67;;;;;;;23.16;51.72;95275.66;5071850;28;20821;-77
2023/10/01 07:16:58;;;;;;;14.87;9.33;;;;;;;23.20;52.36;95276.91;5071680;28;20987;-77
2023/10/01 07:19:25;;;;;;;11.83;9.37;;;;;;;23.43;52.92;95276.59;5071637;28;20450;-77
2023/10/01 07:21:56;;;;;;;16.43;10.00;;;;;;;23.44;52.49;95278.25;5071702;28;20451;-77
2023/10/01 07:24:24;;;;;;;10.13;9.10;;;;;;;23.57;52.22;95277.50;5071649;28;20524;-77
2023/10/01 07:26:51;;;;;;;13.57;9.60;;;;;;;23.61;54.14;95281.41;5071317;28;20482;-77
2023/10/01 07:29:21;;;;;;;17.67;10.50;;;;;;;23.55;52.27;95279.50;5071519;28;20988;-77
2023/10/01 07:31:48;;;;;;;15.23;9.83;;;;;;;23.57;52.85;95278.31;5071250;28;20459;-77
2023/10/01 07:34:16;;;;;;;14.93;8.63;;;;;;;23.52;52.83;95279.91;5074011;28;20443;-77
2023/10/01 07:36:45;;;;;;;11.67;9.60;;;;;;;23.69;52.61;95278.56;5074970;28;21102;-77
2023/10/01 07:39:13;;;;;;;11.80;10.50;;;;;;;23.43;52.68;95277.41;5074883;28;20446;-77
2023/10/01 07:41:44;;;;;;;12.80;10.07;;;;;;;23.36;52.89;95273.88;5074990;28;20470;-77
2023/10/01 07:44:12;;;;;;;16.83;10.13;;;;;;;23.40;54.91;95274.28;5074852;28;20453;-77
2023/10/01 07:46:40;;;;;;;12.83;10.33;;;;;;;23.31;56.79;95281.69;5074626;28;20880;-77
2023/10/01 07:49:10;;;;;;;17.40;10.77;;;;;;;23.40;53.72;95277.78;5074780;28;20478;-77
2023/10/01 07:51:38;;;;;;;13.97;9.47;;;;;;;23.41;55.29;95281.28;5075007;28;20479;-77
2023/10/01 07:54:10;;;;;;;14.27;11.20;;;;;;;23.47;53.58;95283.19;5056178;28;20801;-77
2023/10/01 07:56:48;;;;;;;15.63;11.07;;;;;;;23.28;54.28;95283.94;5074524;28;20446;-77
2023/10/01 07:59:28;;;;;;;15.10;9.83;;;;;;;23.32;54.69;95286.00;5074691;28;20948;-77
2023/10/01 08:02:13;;;;;;;17.60;9.93;;;;;;;23.45;54.66;95285.25;5074824;28;20798;-77
2023/10/01 08:04:57;;;;;;;15.50;11.07;;;;;;;23.60;54.63;95287.81;5074801;28;20429;-77
2023/10/01 08:07:30;;;;;;;16.53;11.50;;;;;;;23.73;54.22;95287.88;5074554;28;20810;-77
2023/10/01 08:09:59;;;;;;;19.23;11.60;;;;;;;23.62;54.27;95280.38;5074893;28;20445;-77
2023/10/01 08:13:04;;;;;;;17.00;9.80;;;;;;;23.56;55.17;95283.88;5074453;28;20451;-77
2023/10/01 08:15:38;;;;;;;17.63;10.90;;;;;;;23.67;54.88;95294.00;5074386;28;20426;-77
2023/10/01 08:20:58;;;;;;;15.10;12.00;;;;;;;23.56;53.64;95292.75;5058654;28;20461;-77
2023/10/01 08:23:27;;;;;;;18.83;11.70;;;;;;;23.52;54.66;95285.28;5038743;28;20469;-78
2023/10/01 08:25:55;;;;;;;17.97;11.30;;;;;;;23.72;56.71;95292.41;5073931;28;20442;-78
2023/10/01 08:28:29;;;;;;;11.60;10.40;;;;;;;23.89;55.07;95284.81;5073978;28;20483;-77
2023/10/01 08:33:51;;;;;;;18.70;12.43;;;;;;;24.14;54.07;95289.59;5044626;28;21222;-77
2023/10/01 08:36:24;;;;;;;14.90;12.30;;;;;;;24.23;54.11;95294.56;5073892;28;20753;-77
2023/10/01 08:41:47;;;;;;;18.47;11.57;;;;;;;24.48;53.48;95302.03;5073681;28;20447;-77
2023/10/01 08:44:19;;;;;;;16.10;11.27;;;;;;;24.14;52.84;95295.78;5056707;28;20440;-77
2023/10/01 08:46:47;;;;;;;16.30;11.50;;;;;;;24.05;53.09;95303.22;5073629;28;20478;-77
2023/10/01 08:49:23;;;;;;;18.00;12.17;;;;;;;24.00;55.12;95296.81;5073796;28;20483;-77
2023/10/01 08:52:18;;;;;;;13.87;11.17;;;;;;;23.85;54.84;95291.59;5074160;28;20468;-77
2023/10/01 08:54:44;;;;;;;21.77;11.23;;;;;;;23.96;54.95;95290.16;5073791;28;20439;-78
2023/10/01 08:57:17;;;;;;;20.20;12.10;;;;;;;24.19;53.03;95296.00;5073835;28;20471;-77
2023/10/01 08:59:44;;;;;;;18.33;11.00;;;;;;;24.22;55.29;95297.44;5073487;28;20538;-77
2023/10/01 09:02:16;;;;;;;13.60;10.57;;;;;;;24.17;54.06;95292.69;5073692;28;20436;-77
2023/10/01 09:04:47;;;;;;;15.03;10.50;;;;;;;24.35;53.13;95302.88;5073977;28;20440;-77
2023/10/01 09:07:19;;;;;;;12.57;10.30;;;;;;;24.34;52.88;95295.84;5073543;28;20453;-77
2023/10/01 09:10:06;;;;;;;16.07;12.40;;;;;;;24.39;51.78;95291.53;5073121;28;20525;-77
2023/10/01 09:12:35;;;;;;;17.80;10.60;;;;;;;24.40;51.94;95293.16;5073455;28;20546;-78
2023/10/01 09:15:04;;;;;;;18.93;12.57;;;;;;;24.55;51.70;95290.25;5073340;28;20494;-78
2023/10/01 09:17:40;;;;;;;19.00;11.47;;;;;;;24.63;52.47;95295.44;5073399;28;20530;-77
2023/10/01 09:20:17;;;;;;;16.93;11.13;;;;;;;24.53;52.53;95295.00;5073228;28;20638;-81
2023/10/01 09:23:00;;;;;;;15.23;11.10;;;;;;;24.39;51.99;95298.75;5073005;28;20505;-77
2023/10/01 09:25:26;;;;;;;21.20;11.00;;;;;;;24.29;52.48;95290.28;5073899;28;20448;-77
2023/10/01 09:27:57;;;;;;;15.43;10.77;;;;;;;24.25;52.44;95297.03;5073776;28;20443;-78
2023/10/01 09:30:27;;;;;;;12.23;10.17;;;;;;;24.18;52.30;95290.84;5073854;28;21067;-78
2023/10/01 09:33:03;;;;;;;20.03;11.90;;;;;;;24.26;53.26;95298.69;5038155;28;20474;-78
2023/10/01 09:35:49;;;;;;;18.23;10.10;;;;;;;24.31;51.33;95297.09;5073685;28;20452;-77
2023/10/01 09:38:18;;;;;;;17.90;10.77;;;;;;;24.37;50.21;95292.75;5073671;28;20448;-76
2023/10/01 09:40:46;;;;;;;14.33;9.20;;;;;;;24.47;50.54;95298.53;5073272;28;20440;-75
2023/10/01 09:43:19;;;;;;;14.77;11.40;;;;;;;24.56;52.08;95291.09;5073604;28;20451;-75
2023/10/01 09:45:47;;;;;;;18.60;11.83;;;;;;;24.64;52.18;95297.09;5073274;28;20529;-75
2023/10/01 09:48:29;;;;;;;14.00;10.17;;;;;;;24.62;51.12;95283.06;5073149;28;20541;-74
2023/10/01 09:51:07;;;;;;;12.60;9.70;;;;;;;24.69;52.33;95293.78;5072794;28;20440;-74
2023/10/01 09:53:46;;;;;;;16.70;10.73;;;;;;;24.69;50.33;95294.63;5080640;28;20927;-74
2023/10/01 09:56:16;;;;;;;12.20;9.97;;;;;;;24.61;51.08;95292.16;5060889;28;20439;-74
2023/10/01 09:58:46;;;;;;;10.87;9.73;;;;;;;24.42;49.75;95292.13;5047182;28;20432;-74
2023/10/01 10:01:18;;;;;;;11.40;8.73;;;;;;;24.18;50.19;95290.84;5082683;28;20435;-74
2023/10/01 10:03:45;;;;;;;13.17;9.33;;;;;;;23.97;49.40;95289.97;5081640;28;20468;-74
2023/10/01 10:06:24;;;;;;;14.53;10.93;;;;;;;23.98;51.77;95278.22;5045302;28;21160;-74
2023/10/01 10:09:04;;;;;;;18.27;10.20;;;;;;;24.04;50.47;95285.47;5081826;28;20480;-74
2023/10/01 10:11:36;;;;;;;15.40;10.60;;;;;;;24.22;51.98;95279.50;5044426;28;20850;-74
2023/10/01 10:14:25;;;;;;;11.73;9.40;;;;;;;24.31;49.70;95275.63;5071165;28;20445;-74
2023/10/01 10:16:57;;;;;;;13.97;11.03;;;;;;;24.45;49.00;95276.44;5066762;28;20447;-74
2023/10/01 10:19:24;;;;;;;14.07;10.30;;;;;;;24.50;48.83;95273.97;5065404;28;20906;-74
2023/10/01 10:22:32;;;;;;;13.33;9.93;;;;;;;24.57;46.46;95266.72;5065445;28;20994;-74
2023/10/01 10:25:22;;;;;;;10.30;8.87;;;;;;;24.50;46.22;95263.22;5051831;28;20993;-74
2023/10/01 10:27:49;;;;;;;10.77;9.10;;;;;;;24.47;46.77;95268.19;5052092;28;20441;-74
2023/10/01 10:30:16;;;;;;;13.30;9.23;;;;;;;24.52;46.36;95257.66;5051881;28;20492;-74
2023/10/01 10:33:41;;;;;;;17.37;9.97;;;;;;;24.50;45.86;95255.19;5053022;28;20504;-74
2023/10/01 10:36:37;;;;;;;11.97;8.90;;;;;;;24.56;46.43;95248.97;5071838;28;20452;-75
2023/10/01 10:39:15;;;;;;;11.63;10.10;;;;;;;24.54;46.32;95253.72;5068859;28;20938;-74
2023/10/01 10:42:28;;;;;;;16.03;9.50;;;;;;;24.49;46.79;95234.75;5071710;28;20452;-74
2023/10/01 10:45:21;;;;;;;10.40;9.37;;;;;;;24.47;48.12;95241.38;4978323;28;20931;-73
2023/10/01 10:48:01;;;;;;;15.63;9.40;;;;;;;24.44;46.30;95239.09;4970123;28;20480;-74
2023/10/01 10:50:44;;;;;;;12.50;8.80;;;;;;;24.46;47.54;95240.53;4923433;28;20444;-74
2023/10/01 10:53:19;;;;;;;10.33;9.07;;;;;;;24.51;47.23;95239.91;4973502;28;20456;-74
2023/10/01 10:55:53;;;;;;;10.60;8.70;;;;;;;24.59;46.05;95224.44;4970501;28;20452;-74
2023/10/01 10:58:20;;;;;;;13.33;8.07;;;;;;;24.65;46.20;95215.56;4976065;28;20534;-74
2023/10/01 11:00:48;;;;;;;12.80;9.37;;;;;;;24.61;49.55;95219.69;4975272;28;20543;-74
2023/10/01 11:03:16;;;;;;;15.90;8.17;;;;;;;24.68;46.50;95212.44;4971235;28;20445;-73
2023/10/01 11:05:50;;;;;;;14.43;9.03;;;;;;;24.67;48.15;95210.78;4975994;28;20448;-74
2023/10/01 11:08:25;;;;;;;13.50;9.37;;;;;;;24.66;47.88;95211.00;4978324;28;20473;-74
2023/10/01 11:10:55;;;;;;;15.83;9.47;;;;;;;24.76;50.72;95207.88;4974701;28;20862;-74
2023/10/01 11:13:38;;;;;;;14.60;9.20;;;;;;;24.82;47.57;95217.78;4987604;28;20447;-74
2023/10/01 11:16:14;;;;;;;13.13;10.10;;;;;;;24.89;53.71;95207.88;4993960;28;20525;-75
2023/10/01 11:18:44;;;;;;;14.10;10.93;;;;;;;24.88;50.63;95198.16;4993973;28;20447;-75
2023/10/01 11:21:20;;;;;;;19.93;12.20;;;;;;;24.90;46.16;95207.66;5022471;28;20503;-75
2023/10/01 11:23:53;;;;;;;14.00;10.50;;;;;;;24.87;49.87;95200.03;5074389;28;20445;-75
2023/10/01 11:26:27;;;;;;;12.70;9.10;;;;;;;24.88;49.41;95190.13;5057356;28;20867;-75
2023/10/01 11:28:57;;;;;;;11.00;9.30;;;;;;;24.94;47.03;95181.22;5074976;28;20492;-75
2023/10/01 11:31:24;;;;;;;13.77;8.80;;;;;;;25.00;47.11;95191.94;5075603;28;20429;-75
2023/10/01 11:34:03;;;;;;;14.33;10.67;;;;;;;24.96;50.67;95165.69;5075054;28;20445;-75
2023/10/01 11:36:36;;;;;;;24.07;11.00;;;;;;;25.07;48.27;95181.19;5074966;28;20489;-75
2023/10/01 11:39:04;;;;;;;16.47;10.13;;;;;;;25.13;48.41;95187.56;5074356;28;20467;-77
2023/10/01 11:41:41;;;;;;;16.97;10.27;;;;;;;25.12;47.40;95172.47;5074929;28;20519;-76
2023/10/01 11:44:09;;;;;;;19.80;10.63;;;;;;;25.09;47.46;95184.47;5075316;28;20459;-74
2023/10/01 11:46:56;;;;;;;14.73;10.63;;;;;;;24.90;49.64;95183.50;5074869;28;21099;-78
2023/10/01 11:49:32;;;;;;;12.00;9.77;;;;;;;24.86;48.73;95184.91;5074776;28;20483;-76
2023/10/01 11:52:05;;;;;;;22.43;11.30;;;;;;;24.86;49.01;95176.03;5075640;28;20447;-76
2023/10/01 11:54:44;;;;;;;15.50;10.03;;;;;;;24.92;48.77;95175.22;5075563;28;20831;-75
2023/10/01 11:57:22;;;;;;;14.53;10.20;;;;;;;24.82;47.75;95185.56;5073984;28;20452;-75
2023/10/01 11:59:54;;;;;;;15.17;10.10;;;;;;;24.52;48.87;95175.31;5056264;28;20444;-76
2023/10/01 12:02:25;;;;;;;16.63;10.53;;;;;;;24.23;49.91;95181.09;5075384;28;20531;-76
2023/10/01 12:04:57;;;;;;;20.43;10.70;;;;;;;24.12;50.65;95187.91;5075350;28;20448;-76
2023/10/01 12:07:27;;;;;;;12.63;10.73;;;;;;;24.01;51.44;95180.50;5075551;28;20860;-76
2023/10/01 12:09:55;;;;;;;10.90;9.73;;;;;;;24.09;51.68;95185.63;5075352;28;20491;-76